Disclaimer

Please do not use the information listed here in-flight or in-navigation, as they are not provided to us by the airports but are provided by volunteers, so they might be outdated.

Search


Regions


Airport information page

No radio frequency information is available.

Airport informations:
Latitude: 16° 42' 24.93" S
Longitude: 043° 49' 08.04" W
Elevation: 2191 feet - 668 meters
Operating hours: Remarks
Operating agency: Civil government, landing fees and diplomatic clearance may be required
Timezone: UTC-3(-2DT)
Fuel: Jet A1, without icing nhibitor.

Runway information:
12/30 - 6890 x 148 feet< - >2100 x 45 meters

Recent METARs:
SBMK 211600Z 10010KT CAVOK 28/15 Q1017
SBMK 211600Z 10010KT CAVOK 28/15 Q1017
SBMK 211700Z 12008KT CAVOK 28/15 Q1016

Airport on the map: